Time;durP1;ratioP1;P1;durP2;ratioP2;P2;SDS_P1;SDS_P2;PMS_P1;PMS_P2;Temp;Humidity;BMP_temperature;BMP_pressure;BME280_temperature;BME280_humidity;BME280_pressure;Samples;Min_cycle;Max_cycle;Signal;HPM_P1;HPM_P2
2021/01/18 00:01:39;;;;;;;72.85;47.17;;;0.90;84.20;;;;;;5073581;28;20056;-49
2021/01/18 00:04:05;;;;;;;64.72;43.88;;;0.90;84.00;;;;;;5073526;28;20039;-48
2021/01/18 00:06:31;;;;;;;57.15;37.83;;;0.90;83.60;;;;;;5073269;28;20028;-49
2021/01/18 00:08:57;;;;;;;49.97;35.25;;;0.80;83.40;;;;;;5073723;28;20395;-48
2021/01/18 00:11:23;;;;;;;48.97;32.45;;;0.80;83.30;;;;;;5073462;28;20029;-49
2021/01/18 00:13:50;;;;;;;48.15;33.22;;;0.80;83.90;;;;;;5072383;28;20029;-50
2021/01/18 00:16:18;;;;;;;46.78;32.25;;;0.60;83.80;;;;;;5038027;28;20051;-46
2021/01/18 00:18:44;;;;;;;48.72;34.58;;;0.70;84.30;;;;;;5073585;28;20024;-45
2021/01/18 00:21:10;;;;;;;49.90;35.25;;;0.60;84.10;;;;;;5073377;28;20090;-50
2021/01/18 00:23:37;;;;;;;51.90;36.85;;;;;;;;;;5073093;28;20032;-49
2021/01/18 00:26:04;;;;;;;45.30;33.17;;;0.60;83.60;;;;;;5073258;28;20103;-48
2021/01/18 00:28:31;;;;;;;46.90;32.58;;;0.70;84.00;;;;;;5073171;28;20078;-48
2021/01/18 00:31:01;;;;;;;41.22;30.35;;;0.70;84.50;;;;;;5072650;28;20063;-49
2021/01/18 00:33:27;;;;;;;42.97;30.75;;;0.80;84.70;;;;;;5073335;28;20036;-49
2021/01/18 00:35:53;;;;;;;40.97;29.52;;;0.80;84.60;;;;;;5073000;28;20033;-47
2021/01/18 00:38:19;;;;;;;43.97;30.98;;;0.80;84.40;;;;;;5021073;28;20083;-50
2021/01/18 00:40:45;;;;;;;47.33;32.58;;;0.90;84.80;;;;;;5073219;28;20499;-49
2021/01/18 00:43:10;;;;;;;43.25;29.92;;;0.90;84.30;;;;;;5073043;28;20035;-49
2021/01/18 00:45:36;;;;;;;44.97;29.40;;;0.80;84.90;;;;;;5072946;28;20415;-46
2021/01/18 00:48:02;;;;;;;40.17;27.65;;;0.90;85.10;;;;;;5072959;28;20392;-46
2021/01/18 00:50:30;;;;;;;39.60;26.90;;;0.90;85.40;;;;;;5004608;28;20044;-49
2021/01/18 00:52:57;;;;;;;39.03;26.98;;;1.00;85.60;;;;;;5072849;28;20431;-49
2021/01/18 00:55:24;;;;;;;41.05;28.30;;;0.90;85.50;;;;;;5073437;28;20455;-50
2021/01/18 00:57:50;;;;;;;40.88;27.35;;;1.00;85.30;;;;;;5073013;28;20350;-46
2021/01/18 01:00:17;;;;;;;49.55;32.03;;;1.00;85.40;;;;;;5072738;28;20028;-50
2021/01/18 01:02:45;;;;;;;38.08;27.17;;;1.00;85.60;;;;;;5072830;28;20020;-49
2021/01/18 01:05:16;;;;;;;43.78;29.35;;;0.90;85.70;;;;;;5073382;28;20059;-46
2021/01/18 01:07:47;;;;;;;39.20;27.35;;;0.90;85.90;;;;;;5076617;28;20033;-47
2021/01/18 01:10:16;;;;;;;38.87;28.07;;;0.90;85.60;;;;;;5076610;28;20071;-50
2021/01/18 01:12:42;;;;;;;40.63;27.65;;;0.90;85.70;;;;;;5076646;28;20265;-47
2021/01/18 01:15:10;;;;;;;40.58;27.40;;;0.90;85.40;;;;;;5076586;28;20063;-48
2021/01/18 01:17:45;;;;;;;41.42;28.38;;;0.90;85.50;;;;;;5076641;28;20473;-46
2021/01/18 01:20:13;;;;;;;39.30;27.30;;;0.90;85.30;;;;;;5076590;28;20036;-46
2021/01/18 01:22:40;;;;;;;41.63;28.13;;;1.00;85.00;;;;;;5041211;28;20044;-50
2021/01/18 01:25:07;;;;;;;43.22;30.38;;;0.90;85.00;;;;;;5076344;28;20730;-46
2021/01/18 01:27:33;;;;;;;43.83;29.55;;;0.60;85.70;;;;;;5076509;28;20411;-50
2021/01/18 01:29:59;;;;;;;41.63;30.17;;;0.40;86.70;;;;;;5075936;28;20036;-51
2021/01/18 01:32:25;;;;;;;40.97;29.13;;;0.40;85.70;;;;;;5076337;28;20097;-49
2021/01/18 01:34:50;;;;;;;42.60;29.88;;;0.40;85.90;;;;;;5076332;28;20059;-50
2021/01/18 01:37:16;;;;;;;42.97;29.55;;;0.60;86.00;;;;;;5076221;28;20069;-49
2021/01/18 01:39:42;;;;;;;42.13;29.70;;;0.60;84.80;;;;;;5076540;28;20075;-48
2021/01/18 01:42:21;;;;;;;43.95;30.52;;;0.50;85.40;;;;;;5076481;28;20485;-48
2021/01/18 01:44:47;;;;;;;45.97;32.30;;;0.40;85.10;;;;;;5040391;28;20039;-46
2021/01/18 01:47:29;;;;;;;48.25;31.67;;;-0.10;86.70;;;;;;5076044;28;20032;-48
2021/01/18 01:49:56;;;;;;;51.72;34.17;;;0.00;87.50;;;;;;5076059;28;20039;-45
2021/01/18 01:52:24;;;;;;;48.13;31.63;;;0.10;86.70;;;;;;5075627;28;20046;-47
2021/01/18 01:54:52;;;;;;;47.72;33.15;;;0.30;86.20;;;;;;5076050;28;20039;-45
2021/01/18 01:57:18;;;;;;;53.63;33.97;;;0.30;85.90;;;;;;5075841;28;20032;-47
2021/01/18 01:59:45;;;;;;;53.65;33.35;;;0.40;86.30;;;;;;5075567;28;20515;-46
2021/01/18 02:02:13;;;;;;;49.10;31.30;;;0.50;86.50;;;;;;5075971;28;20028;-45
2021/01/18 02:04:39;;;;;;;47.53;32.22;;;0.40;87.90;;;;;;5076162;28;20056;-49
2021/01/18 02:07:23;;;;;;;53.13;34.38;;;0.50;88.00;;;;;;5075583;28;20043;-47
2021/01/18 02:09:50;;;;;;;50.17;32.85;;;0.50;88.50;;;;;;5040473;28;20508;-50
2021/01/18 02:12:16;;;;;;;47.20;32.05;;;0.50;88.50;;;;;;5075585;28;20635;-50
2021/01/18 02:15:11;;;;;;;48.83;31.88;;;0.50;88.50;;;;;;5075684;28;20166;-44
2021/01/18 02:17:44;;;;;;;46.05;31.85;;;0.50;88.50;;;;;;5075491;28;20055;-47
2021/01/18 02:20:31;;;;;;;44.63;30.13;;;0.40;88.40;;;;;;5072443;28;20033;-47
2021/01/18 02:23:27;;;;;;;45.75;30.70;;;0.40;88.70;;;;;;5075692;28;20039;-49
2021/01/18 02:26:09;;;;;;;37.80;23.00;;;0.40;89.10;;;;;;5075553;28;20107;-49
2021/01/18 02:29:15;;;;;;;42.33;26.13;;;0.40;89.80;;;;;;5075267;28;20074;-50
2021/01/18 02:32:08;;;;;;;45.25;28.70;;;0.20;90.80;;;;;;4974141;28;20312;-46
2021/01/18 02:34:52;;;;;;;48.85;30.77;;;0.00;91.40;;;;;;4974183;28;20042;-49
2021/01/18 02:37:43;;;;;;;44.35;27.88;;;-0.20;91.50;;;;;;4974288;28;20047;-47
2021/01/18 02:40:19;;;;;;;59.88;33.22;;;-0.30;91.40;;;;;;4974288;28;20069;-49
2021/01/18 02:42:51;;;;;;;80.85;30.70;;;-0.40;91.90;;;;;;4973436;28;20050;-46
2021/01/18 02:45:21;;;;;;;63.65;25.90;;;-0.30;97.30;;;;;;4974413;28;20515;-49
2021/01/18 02:47:47;;;;;;;64.90;28.77;;;-0.70;92.90;;;;;;4974220;28;20070;-46
2021/01/18 02:50:14;;;;;;;54.13;29.73;;;-0.40;94.80;;;;;;4974002;28;20042;-46
2021/01/18 02:52:44;;;;;;;43.80;25.20;;;-0.50;93.10;;;;;;4974082;28;20109;-49
2021/01/18 02:55:11;;;;;;;48.45;28.73;;;-0.60;93.10;;;;;;4974238;28;20514;-49
2021/01/18 02:57:40;;;;;;;51.40;29.80;;;-0.50;94.70;;;;;;4973485;28;20042;-47
2021/01/18 03:00:16;;;;;;;47.95;29.85;;;-0.40;94.50;;;;;;4974008;28;20070;-46
2021/01/18 03:03:13;;;;;;;48.25;28.85;;;-0.30;94.20;;;;;;4973958;28;20383;-46
2021/01/18 03:06:01;;;;;;;41.63;23.75;;;-0.60;93.50;;;;;;4972695;28;20043;-47
2021/01/18 03:08:43;;;;;;;47.63;28.85;;;-0.60;93.60;;;;;;4998658;28;20037;-47
2021/01/18 03:11:37;;;;;;;47.00;30.48;;;-0.60;93.70;;;;;;5034744;28;20592;-49
2021/01/18 03:14:07;;;;;;;55.47;33.95;;;-0.70;94.00;;;;;;5033563;28;20551;-49
2021/01/18 03:16:38;;;;;;;53.63;33.35;;;-0.70;94.20;;;;;;5034620;28;20040;-47
2021/01/18 03:19:06;;;;;;;57.40;33.77;;;-0.60;94.00;;;;;;5034345;28;20030;-48
2021/01/18 03:21:32;;;;;;;49.97;31.85;;;-0.60;94.00;;;;;;5034716;28;20259;-48
2021/01/18 03:23:58;;;;;;;51.50;32.38;;;-0.60;94.10;;;;;;5034546;28;20036;-48
2021/01/18 03:26:28;;;;;;;60.90;34.83;;;-0.60;93.90;;;;;;5034154;28;20034;-50
2021/01/18 03:28:54;;;;;;;55.75;33.88;;;-0.60;93.90;;;;;;5033719;28;20029;-49
2021/01/18 03:31:21;;;;;;;54.35;33.90;;;-0.60;93.90;;;;;;5059459;28;20470;-47
2021/01/18 03:33:47;;;;;;;59.00;34.42;;;-0.70;93.70;;;;;;5073811;28;20119;-46
2021/01/18 03:36:13;;;;;;;60.33;36.58;;;-0.80;94.00;;;;;;5074276;28;20120;-45
2021/01/18 03:38:38;;;;;;;54.17;33.50;;;-0.80;93.70;;;;;;5073963;28;20032;-49
2021/01/18 03:41:05;;;;;;;62.60;38.58;;;-0.90;93.60;;;;;;5073978;28;20025;-49
2021/01/18 03:43:31;;;;;;;62.80;37.08;;;-1.00;93.70;;;;;;5074044;28;20028;-45
2021/01/18 03:45:56;;;;;;;52.67;30.42;;;-1.00;97.10;;;;;;5073670;28;20151;-46
2021/01/18 03:48:22;;;;;;;62.55;37.58;;;-1.30;93.80;;;;;;5074090;28;20020;-47
2021/01/18 03:50:50;;;;;;;68.38;35.25;;;-1.10;93.80;;;;;;5073430;28;20052;-50
2021/01/18 03:53:16;;;;;;;68.78;39.55;;;-1.20;93.60;;;;;;5038463;28;20043;-47
2021/01/18 03:55:42;;;;;;;65.15;37.00;;;-1.20;93.50;;;;;;5073784;28;20029;-51
2021/01/18 03:58:08;;;;;;;68.65;36.65;;;-1.40;93.70;;;;;;5073543;28;20468;-49
2021/01/18 04:00:35;;;;;;;65.47;34.85;;;-1.50;93.90;;;;;;5073931;28;20067;-50
2021/01/18 04:03:02;;;;;;;72.93;36.92;;;-1.30;94.10;;;;;;5073609;28;20028;-49
2021/01/18 04:05:28;;;;;;;59.05;31.30;;;-1.40;93.90;;;;;;5073591;28;20111;-45
2021/01/18 04:07:55;;;;;;;61.15;36.40;;;-1.40;93.60;;;;;;5073552;28;20369;-51
2021/01/18 04:10:26;;;;;;;57.35;34.50;;;-1.20;96.70;;;;;;5021926;28;20496;-49
2021/01/18 04:12:53;;;;;;;62.58;35.05;;;-1.20;95.40;;;;;;5073160;28;20033;-50
2021/01/18 04:15:20;;;;;;;72.13;35.15;;;-1.30;94.20;;;;;;5073685;28;20388;-46
2021/01/18 04:17:51;;;;;;;99.78;57.75;;;-1.30;94.10;;;;;;5073544;28;20028;-50
2021/01/18 04:20:18;;;;;;;73.35;44.35;;;-1.20;93.70;;;;;;5073189;28;20109;-49
2021/01/18 04:22:49;;;;;;;85.05;52.40;;;-1.10;93.40;;;;;;5073542;28;20024;-47
2021/01/18 04:25:15;;;;;;;66.80;44.20;;;-1.10;91.90;;;;;;5073524;28;20035;-50
2021/01/18 04:27:50;;;;;;;66.28;45.55;;;-1.10;91.50;;;;;;5073381;28;20039;-47
2021/01/18 04:30:18;;;;;;;90.05;47.40;;;-0.90;97.00;;;;;;5073069;28;20045;-47
2021/01/18 04:33:01;;;;;;;69.25;43.42;;;-0.90;94.00;;;;;;5021671;28;20044;-51
2021/01/18 04:35:27;;;;;;;61.83;40.28;;;;;;;;;;5073424;28;20418;-47
2021/01/18 04:37:55;;;;;;;57.03;35.78;;;-0.90;99.90;;;;;;5072939;28;20074;-48
2021/01/18 04:40:23;;;;;;;50.00;33.10;;;-0.90;90.70;;;;;;5075805;28;20421;-48
2021/01/18 04:42:49;;;;;;;45.45;28.45;;;-0.90;88.50;;;;;;5077282;28;20056;-48
2021/01/18 04:45:17;;;;;;;55.60;32.70;;;-0.70;91.50;;;;;;5077131;28;20031;-48
2021/01/18 04:47:44;;;;;;;54.85;34.25;;;-0.80;94.00;;;;;;5077074;28;20368;-50
2021/01/18 04:50:14;;;;;;;67.72;40.10;;;-0.80;93.30;;;;;;5076790;28;20025;-49
2021/01/18 04:52:46;;;;;;;42.58;25.98;;;-1.00;91.40;;;;;;5077067;28;20078;-49
2021/01/18 04:55:44;;;;;;;66.97;41.55;;;-1.80;89.10;;;;;;5077093;28;20028;-49
2021/01/18 04:58:10;;;;;;;66.03;41.15;;;;;;;;;;4975746;28;20042;-49
2021/01/18 05:00:39;;;;;;;58.10;34.22;;;-1.80;94.30;;;;;;4959740;28;20398;-48
2021/01/18 05:03:06;;;;;;;56.40;35.13;;;-1.70;93.50;;;;;;4975538;28;20074;-48
2021/01/18 05:05:58;;;;;;;54.95;35.67;;;-1.60;92.70;;;;;;4975873;28;20070;-50
2021/01/18 05:08:43;;;;;;;50.90;31.08;;;;;;;;;;4972367;28;20066;-46
2021/01/18 05:11:13;;;;;;;46.17;30.80;;;;;;;;;;4975532;28;20046;-48
2021/01/18 05:13:39;;;;;;;46.38;30.20;;;-1.40;99.90;;;;;;4975777;28;20035;-46
2021/01/18 05:16:07;;;;;;;55.08;36.72;;;-1.30;92.40;;;;;;4975679;28;20039;-49
2021/01/18 05:18:35;;;;;;;46.95;29.98;;;-1.30;90.40;;;;;;4975645;28;20066;-49
2021/01/18 05:21:05;;;;;;;40.42;26.52;;;-1.40;85.30;;;;;;4975615;28;20050;-50
2021/01/18 05:23:32;;;;;;;60.13;37.35;;;-1.20;88.30;;;;;;4975716;28;20097;-47
2021/01/18 05:26:27;;;;;;;44.88;30.50;;;;;;;;;;4975250;28;20027;-48
2021/01/18 05:28:56;;;;;;;43.85;27.73;;;-1.20;91.90;;;;;;4956118;29;20101;-49
2021/01/18 05:31:27;;;;;;;40.20;26.83;;;-1.20;96.00;;;;;;4939859;29;20463;-51
2021/01/18 05:33:57;;;;;;;35.90;24.08;;;-1.20;95.90;;;;;;4957955;28;20062;-50
2021/01/18 05:36:42;;;;;;;39.58;27.08;;;-1.10;92.00;;;;;;5018815;28;20026;-47
2021/01/18 05:39:23;;;;;;;36.20;23.50;;;-1.10;92.50;;;;;;5024543;28;20068;-50
2021/01/18 05:41:52;;;;;;;33.95;22.60;;;-1.10;89.70;;;;;;5017012;28;20029;-47
2021/01/18 05:44:19;;;;;;;32.25;21.73;;;-1.10;87.50;;;;;;5014326;28;20145;-47
2021/01/18 05:46:47;;;;;;;34.67;24.25;;;-1.10;86.70;;;;;;5014117;28;20438;-51
2021/01/18 05:49:17;;;;;;;37.58;24.23;;;-1.00;85.00;;;;;;4997217;28;20038;-52
2021/01/18 05:51:51;;;;;;;35.42;24.58;;;-1.20;83.90;;;;;;4996828;28;20478;-50
2021/01/18 05:54:24;;;;;;;32.05;22.05;;;-1.30;83.60;;;;;;5013966;28;20041;-50
2021/01/18 05:56:55;;;;;;;31.20;22.23;;;-1.30;83.70;;;;;;4997673;28;20438;-52
2021/01/18 05:59:25;;;;;;;33.63;21.92;;;-1.40;82.70;;;;;;5013885;28;20088;-52
2021/01/18 06:01:54;;;;;;;33.78;22.80;;;-1.40;82.90;;;;;;5013580;28;20030;-54
2021/01/18 06:04:21;;;;;;;31.90;21.63;;;-1.40;82.40;;;;;;5003815;28;20417;-53
2021/01/18 06:06:54;;;;;;;34.65;22.15;;;-1.40;83.20;;;;;;5075692;28;20044;-47
2021/01/18 06:09:21;;;;;;;34.00;22.00;;;-1.40;82.60;;;;;;5033741;28;20116;-51
2021/01/18 06:11:46;;;;;;;38.40;26.02;;;-1.40;82.20;;;;;;5049036;28;20085;-51
2021/01/18 06:14:12;;;;;;;96.70;49.63;;;-1.30;82.40;;;;;;5085770;28;20020;-49
2021/01/18 06:16:39;;;;;;;69.93;38.20;;;-1.30;81.80;;;;;;5064731;28;20464;-55
2021/01/18 06:19:08;;;;;;;35.60;24.00;;;-1.40;82.20;;;;;;5084825;28;20485;-52
2021/01/18 06:21:42;;;;;;;30.25;21.42;;;-1.20;83.60;;;;;;5085784;28;20123;-51
2021/01/18 06:24:19;;;;;;;29.70;19.52;;;-1.10;84.30;;;;;;5016295;28;20133;-49
2021/01/18 06:26:46;;;;;;;30.90;19.60;;;-1.00;83.10;;;;;;5084468;28;20380;-48
2021/01/18 06:29:50;;;;;;;30.52;21.30;;;-1.00;82.50;;;;;;5083706;28;20039;-52
2021/01/18 06:32:16;;;;;;;29.83;19.85;;;-1.00;82.10;;;;;;4998266;28;20044;-54
2021/01/18 06:34:42;;;;;;;29.92;20.67;;;-0.90;82.10;;;;;;5083921;28;20111;-47
2021/01/18 06:37:20;;;;;;;33.50;22.30;;;-1.00;81.90;;;;;;5080702;28;20106;-49
2021/01/18 06:39:47;;;;;;;30.02;19.90;;;-0.90;82.40;;;;;;5084479;28;20440;-53
2021/01/18 06:42:21;;;;;;;28.80;20.48;;;-0.70;82.60;;;;;;5085226;28;20353;-53
2021/01/18 06:44:47;;;;;;;44.58;29.30;;;-0.50;85.70;;;;;;5084273;28;20408;-48
2021/01/18 06:47:22;;;;;;;41.22;25.88;;;;;;;;;;5047569;28;20160;-45
2021/01/18 06:49:51;;;;;;;32.17;22.25;;;;;;;;;;5084529;28;20028;-53
2021/01/18 06:52:22;;;;;;;30.50;21.45;;;;;;;;;;5082894;28;20056;-49
2021/01/18 06:54:52;;;;;;;29.83;21.55;;;;;;;;;;5083463;28;20444;-54
2021/01/18 06:57:28;;;;;;;107.72;66.15;;;;;;;;;;5084844;28;20024;-48
2021/01/18 06:59:58;;;;;;;130.10;89.22;;;;;;;;;;5032105;28;20072;-52
2021/01/18 07:02:29;;;;;;;53.67;39.72;;;;;;;;;;5082137;28;20111;-49
2021/01/18 07:05:09;;;;;;;36.45;32.33;;;;;;;;;;5082323;28;20054;-54
2021/01/18 07:07:36;;;;;;;38.67;30.10;;;7.00;93.40;;;;;;5030774;28;20036;-48
2021/01/18 07:10:10;;;;;;;82.53;53.55;;;7.80;74.20;;;;;;5083927;28;20028;-50
2021/01/18 07:12:37;;;;;;;70.95;42.60;;;8.70;56.50;;;;;;5022198;28;20041;-47
2021/01/18 07:15:09;;;;;;;67.60;46.63;;;9.50;60.30;;;;;;5021058;28;20109;-54
2021/01/18 07:17:43;;;;;;;28.45;21.25;;;9.00;75.30;;;;;;4987137;28;20093;-49
2021/01/18 07:20:28;;;;;;;52.03;35.90;;;7.00;50.20;;;;;;5020941;28;20029;-49
2021/01/18 07:23:12;;;;;;;31.77;23.08;;;5.80;53.90;;;;;;5016920;28;20038;-50
2021/01/18 07:25:48;;;;;;;37.92;26.77;;;5.50;54.30;;;;;;5021865;28;20104;-50
2021/01/18 07:28:20;;;;;;;37.28;26.58;;;5.10;55.30;;;;;;5022182;28;20045;-49
2021/01/18 07:30:49;;;;;;;;;;;4.00;58.40;;;;;;5021251;28;20054;-50
2021/01/18 07:33:16;;;;;;;51.13;36.70;;;3.70;59.40;;;;;;5020233;28;19913;-50
2021/01/18 07:35:44;;;;;;;32.85;25.45;;;4.40;60.00;;;;;;5021396;28;20021;-54
2021/01/18 07:38:17;;;;;;;33.58;24.77;;;6.20;60.90;;;;;;5021357;28;20038;-47
2021/01/18 07:41:07;;;;;;;30.92;24.42;;;8.00;54.60;;;;;;5022046;28;20033;-49
2021/01/18 07:43:37;;;;;;;34.90;25.88;;;9.40;52.00;;;;;;5031427;28;20087;-53
2021/01/18 07:46:28;;;;;;;32.78;24.75;;;10.60;48.30;;;;;;5031710;28;20040;-52
2021/01/18 07:48:54;;;;;;;35.75;26.85;;;10.50;43.60;;;;;;5027917;28;20474;-47
2021/01/18 07:51:25;;;;;;;84.60;54.80;;;9.30;42.70;;;;;;5058453;28;20043;-49
2021/01/18 07:53:51;;;;;;;40.17;28.98;;;10.40;46.20;;;;;;5094049;28;20024;-50
2021/01/18 07:56:31;;;;;;;32.08;24.60;;;11.10;44.90;;;;;;5042076;28;20368;-45
2021/01/18 07:59:02;;;;;;;31.27;24.92;;;12.10;44.60;;;;;;5093993;28;20024;-50
2021/01/18 08:01:38;;;;;;;81.57;52.03;;;13.00;41.20;;;;;;5090915;28;20380;-52
2021/01/18 08:04:18;;;;;;;33.80;26.63;;;13.80;40.00;;;;;;5073659;28;20032;-51
2021/01/18 08:07:16;;;;;;;69.40;49.90;;;10.80;40.20;;;;;;5073647;28;20500;-53
2021/01/18 08:09:42;;;;;;;46.15;35.88;;;9.20;43.60;;;;;;4996785;28;20145;-49
2021/01/18 08:12:35;;;;;;;60.55;41.80;;;9.60;43.60;;;;;;5011733;28;20041;-50
2021/01/18 08:15:08;;;;;;;104.30;74.63;;;7.60;47.60;;;;;;4994705;28;20081;-49
2021/01/18 08:17:34;;;;;;;97.03;67.40;;;6.30;49.70;;;;;;4995219;28;20378;-53
2021/01/18 08:20:15;;;;;;;97.50;66.07;;;6.10;51.10;;;;;;5011640;28;20038;-50
2021/01/18 08:22:41;;;;;;;115.25;76.68;;;5.40;53.40;;;;;;5011530;28;20066;-57
2021/01/18 08:25:08;;;;;;;125.63;84.57;;;4.60;57.20;;;;;;5011569;28;20069;-53
2021/01/18 08:27:40;;;;;;;375.08;218.00;;;4.20;59.20;;;;;;5017055;28;20053;-47
2021/01/18 08:30:37;;;;;;;113.68;75.40;;;4.30;59.10;;;;;;4959368;28;20038;-48
2021/01/18 08:33:06;;;;;;;190.35;117.25;;;4.50;58.50;;;;;;4992081;28;20049;-56
2021/01/18 08:35:46;;;;;;;99.68;68.55;;;4.60;59.10;;;;;;4992357;28;20035;-55
2021/01/18 08:38:31;;;;;;;98.22;68.20;;;4.00;61.60;;;;;;4975585;28;20042;-54
2021/01/18 08:40:59;;;;;;;108.38;74.13;;;3.50;63.40;;;;;;4991861;28;20022;-49
2021/01/18 08:43:25;;;;;;;82.47;59.80;;;4.00;63.50;;;;;;4992159;28;20038;-57
2021/01/18 08:45:55;;;;;;;62.45;42.92;;;4.30;62.00;;;;;;5022367;28;20175;-53
2021/01/18 08:48:25;;;;;;;70.93;48.00;;;4.90;59.60;;;;;;5014864;28;20040;-47
2021/01/18 08:50:53;;;;;;;63.80;41.83;;;4.90;59.40;;;;;;5033124;28;20112;-45
2021/01/18 08:53:32;;;;;;;88.78;58.33;;;4.90;58.80;;;;;;5033307;28;20025;-49
2021/01/18 08:56:06;;;;;;;78.22;54.50;;;;;;;;;;5033480;28;20033;-47
2021/01/18 08:58:36;;;;;;;72.70;51.92;;;4.00;61.70;;;;;;5033553;28;20469;-47
2021/01/18 09:01:07;;;;;;;56.72;41.78;;;3.90;64.30;;;;;;5033069;28;20026;-45
2021/01/18 09:03:33;;;;;;;50.97;37.70;;;4.60;62.00;;;;;;5033218;28;20478;-53
2021/01/18 09:05:59;;;;;;;50.75;37.42;;;5.00;60.40;;;;;;5031143;28;20033;-46
2021/01/18 09:08:26;;;;;;;53.20;38.30;;;5.20;59.30;;;;;;5014451;28;20554;-47
2021/01/18 09:10:59;;;;;;;52.05;37.58;;;5.70;59.10;;;;;;5033032;28;20030;-51
2021/01/18 09:13:30;;;;;;;52.17;38.67;;;5.70;57.70;;;;;;5033011;28;20465;-51
2021/01/18 09:15:57;;;;;;;55.15;39.83;;;5.90;57.30;;;;;;5032962;28;20056;-52
2021/01/18 09:18:25;;;;;;;64.53;44.53;;;6.10;56.70;;;;;;5033158;28;20025;-51
2021/01/18 09:20:53;;;;;;;61.05;44.25;;;7.10;57.20;;;;;;5033109;28;20030;-46
2021/01/18 09:23:19;;;;;;;58.15;44.53;;;7.90;55.90;;;;;;5032802;28;20368;-52
2021/01/18 09:25:45;;;;;;;45.45;35.42;;;9.30;55.20;;;;;;5031151;28;20112;-57
2021/01/18 09:28:15;;;;;;;51.40;38.35;;;9.60;50.10;;;;;;5036442;28;20030;-48
2021/01/18 09:30:44;;;;;;;41.17;34.10;;;9.50;49.60;;;;;;5050521;28;20392;-54
2021/01/18 09:33:13;;;;;;;40.20;30.55;;;10.00;48.00;;;;;;5041004;28;20033;-51
2021/01/18 09:35:42;;;;;;;39.63;29.95;;;10.40;47.70;;;;;;5076691;28;20043;-49
2021/01/18 09:38:09;;;;;;;42.10;30.40;;;10.10;46.40;;;;;;5076156;28;20112;-48
2021/01/18 09:40:40;;;;;;;32.78;26.25;;;9.50;46.80;;;;;;5076467;28;20029;-49
2021/01/18 09:43:07;;;;;;;34.42;26.02;;;9.20;48.30;;;;;;5075957;28;20439;-52
2021/01/18 09:45:33;;;;;;;27.20;21.50;;;8.80;48.70;;;;;;5076179;28;20471;-53
2021/01/18 09:48:05;;;;;;;31.67;23.27;;;8.60;49.50;;;;;;5076191;28;20487;-53
2021/01/18 09:50:32;;;;;;;25.88;20.73;;;7.90;50.00;;;;;;5040636;28;20353;-50
2021/01/18 09:52:58;;;;;;;28.05;19.25;;;7.60;50.80;;;;;;5075874;28;20021;-49
2021/01/18 09:55:26;;;;;;;26.13;19.40;;;7.40;51.80;;;;;;5076369;28;20020;-49
2021/01/18 09:58:03;;;;;;;23.33;17.38;;;7.10;53.40;;;;;;5078355;28;20472;-52
2021/01/18 10:00:32;;;;;;;23.70;17.00;;;6.30;54.00;;;;;;5085359;28;20025;-53
2021/01/18 10:02:59;;;;;;;23.27;17.02;;;6.00;55.80;;;;;;5083838;28;20032;-49
2021/01/18 10:05:34;;;;;;;20.77;15.63;;;5.60;55.90;;;;;;5085026;28;20020;-46
2021/01/18 10:08:10;;;;;;;20.77;15.48;;;5.10;56.10;;;;;;5090179;28;20451;-48
2021/01/18 10:10:48;;;;;;;23.52;17.05;;;4.70;57.90;;;;;;5046721;28;20075;-49
2021/01/18 10:13:17;;;;;;;20.27;13.75;;;4.10;59.30;;;;;;5095531;28;20492;-49
2021/01/18 10:15:47;;;;;;;25.08;14.98;;;3.70;60.40;;;;;;5096238;28;20086;-52
2021/01/18 10:18:34;;;;;;;22.95;16.48;;;3.80;61.30;;;;;;5095284;28;20028;-52
2021/01/18 10:21:01;;;;;;;17.58;11.25;;;3.70;61.10;;;;;;5060161;28;20109;-52
2021/01/18 10:23:38;;;;;;;25.15;17.90;;;2.80;64.10;;;;;;5096020;28;20415;-47
2021/01/18 10:26:25;;;;;;;25.25;17.83;;;3.50;64.00;;;;;;5092947;28;20021;-55
2021/01/18 10:29:00;;;;;;;24.33;16.40;;;3.70;63.80;;;;;;5088725;28;20024;-52
2021/01/18 10:31:31;;;;;;;29.63;19.85;;;3.50;63.60;;;;;;5083066;28;20044;-57
2021/01/18 10:34:16;;;;;;;32.17;22.43;;;3.60;64.40;;;;;;5084319;28;20032;-45
2021/01/18 10:36:45;;;;;;;25.80;17.88;;;4.20;63.50;;;;;;5049508;28;20276;-51
2021/01/18 10:39:41;;;;;;;45.70;24.48;;;4.30;60.90;;;;;;5039645;28;20041;-48
2021/01/18 10:42:17;;;;;;;22.63;17.08;;;3.80;62.90;;;;;;4993592;28;20541;-46
2021/01/18 10:44:54;;;;;;;43.85;23.88;;;3.90;62.10;;;;;;4960313;28;20057;-48
2021/01/18 10:47:21;;;;;;;216.00;99.15;;;3.70;62.70;;;;;;4992213;28;20042;-47
2021/01/18 10:49:55;;;;;;;28.35;20.02;;;3.30;63.90;;;;;;4992840;28;20395;-44
2021/01/18 10:52:32;;;;;;;24.90;16.08;;;3.80;62.80;;;;;;4993040;28;20050;-51
2021/01/18 10:54:59;;;;;;;19.83;15.35;;;4.00;62.90;;;;;;4992043;28;20073;-47
2021/01/18 10:57:26;;;;;;;21.02;14.90;;;3.90;63.00;;;;;;4991948;28;20243;-46
2021/01/18 11:00:22;;;;;;;17.98;12.55;;;3.90;61.50;;;;;;4992357;28;20120;-48
2021/01/18 11:03:02;;;;;;;19.33;14.60;;;4.20;60.30;;;;;;4940634;29;20032;-51
2021/01/18 11:05:34;;;;;;;19.30;13.45;;;4.30;61.00;;;;;;4953938;28;20040;-50
2021/01/18 11:08:01;;;;;;;;;;;4.30;60.60;;;;;;4954786;29;20423;-46
2021/01/18 11:10:28;;;;;;;16.02;10.30;;;4.50;60.30;;;;;;4952696;29;19945;-46
2021/01/18 11:13:17;;;;;;;18.38;14.38;;;3.80;62.00;;;;;;4942405;29;20040;-49
2021/01/18 11:15:45;;;;;;;16.08;11.52;;;3.50;63.20;;;;;;4878894;29;20037;-48
2021/01/18 11:18:12;;;;;;;12.02;7.82;;;3.60;62.30;;;;;;4884861;29;20100;-50
2021/01/18 11:20:40;;;;;;;17.40;12.90;;;3.30;60.10;;;;;;4897066;29;20036;-44
2021/01/18 11:23:11;;;;;;;13.13;10.00;;;3.70;60.40;;;;;;4897212;29;20134;-45
2021/01/18 11:25:38;;;;;;;15.75;12.27;;;3.70;58.90;;;;;;4896940;29;20127;-49
2021/01/18 11:28:15;;;;;;;21.45;15.32;;;4.00;60.30;;;;;;4896812;29;20039;-49
2021/01/18 11:30:41;;;;;;;21.25;14.85;;;4.00;61.40;;;;;;4912463;29;20049;-49
2021/01/18 11:33:11;;;;;;;25.80;18.52;;;4.20;60.60;;;;;;4904563;29;20044;-48
2021/01/18 11:35:38;;;;;;;23.70;16.30;;;3.80;62.60;;;;;;4914434;29;20871;-49
2021/01/18 11:38:04;;;;;;;20.45;15.65;;;3.40;65.00;;;;;;4918800;28;20024;-50
2021/01/18 11:40:30;;;;;;;22.50;15.50;;;3.70;65.10;;;;;;4992613;28;20038;-47
2021/01/18 11:42:59;;;;;;;22.70;16.45;;;3.70;62.70;;;;;;4993024;28;20026;-47
2021/01/18 11:45:25;;;;;;;21.67;16.50;;;4.10;64.00;;;;;;4992592;28;20038;-49
2021/01/18 11:47:51;;;;;;;26.60;19.33;;;4.20;63.80;;;;;;4960020;28;20034;-47
2021/01/18 11:50:17;;;;;;;27.27;19.80;;;4.40;62.60;;;;;;4991660;28;20026;-48
2021/01/18 11:52:47;;;;;;;26.88;19.50;;;4.10;63.80;;;;;;5033791;28;20037;-48
2021/01/18 11:55:14;;;;;;;22.60;15.95;;;3.90;64.70;;;;;;5029715;28;20490;-46
2021/01/18 11:57:44;;;;;;;23.70;17.67;;;3.80;62.50;;;;;;5031398;28;20081;-50
2021/01/18 12:00:15;;;;;;;25.88;17.80;;;3.90;65.00;;;;;;5031775;28;20041;-49
2021/01/18 12:02:41;;;;;;;21.70;16.00;;;4.00;63.90;;;;;;4968020;28;20038;-46
2021/01/18 12:05:07;;;;;;;20.17;14.60;;;4.20;60.70;;;;;;4949871;28;20132;-45
2021/01/18 12:07:33;;;;;;;16.95;12.48;;;4.20;60.20;;;;;;5031818;28;20032;-46
2021/01/18 12:09:59;;;;;;;13.40;10.20;;;4.30;60.10;;;;;;5031657;28;20037;-49
2021/01/18 12:12:25;;;;;;;17.60;12.40;;;4.20;59.70;;;;;;5031167;28;20052;-47
2021/01/18 12:14:51;;;;;;;17.05;13.18;;;4.20;60.20;;;;;;5031694;28;20037;-46
2021/01/18 12:17:17;;;;;;;17.80;11.80;;;4.30;60.90;;;;;;5031581;28;20033;-49
2021/01/18 12:19:44;;;;;;;13.13;8.95;;;4.70;58.30;;;;;;5031117;28;20025;-48
2021/01/18 12:22:10;;;;;;;11.98;8.15;;;4.50;58.00;;;;;;5031677;28;20048;-46
2021/01/18 12:24:36;;;;;;;35.10;18.98;;;4.40;56.00;;;;;;5031309;28;20489;-51
2021/01/18 12:27:02;;;;;;;16.17;11.77;;;4.70;58.60;;;;;;5066514;28;20461;-46
2021/01/18 12:29:27;;;;;;;17.33;12.00;;;4.90;58.20;;;;;;5005244;28;20119;-50
2021/01/18 12:31:53;;;;;;;14.60;10.32;;;5.00;57.70;;;;;;5073725;28;20548;-48
2021/01/18 12:34:19;;;;;;;16.52;11.50;;;4.80;57.00;;;;;;5021436;28;20036;-47
2021/01/18 12:36:53;;;;;;;18.58;13.60;;;4.80;57.80;;;;;;5073356;28;20495;-46
2021/01/18 12:39:19;;;;;;;25.65;17.88;;;5.00;56.80;;;;;;5073706;28;20055;-44
2021/01/18 12:41:44;;;;;;;17.95;13.43;;;4.80;58.10;;;;;;5073038;28;20129;-49
2021/01/18 12:44:10;;;;;;;18.42;13.32;;;4.90;58.00;;;;;;5038289;28;20037;-50
2021/01/18 12:46:36;;;;;;;19.30;12.98;;;4.90;57.80;;;;;;5073258;28;20032;-47
2021/01/18 12:49:01;;;;;;;23.73;15.27;;;4.80;58.10;;;;;;5073345;28;20033;-47
2021/01/18 12:51:27;;;;;;;21.20;15.88;;;4.90;59.60;;;;;;5038200;28;20036;-46
2021/01/18 12:53:54;;;;;;;20.60;13.32;;;5.20;58.20;;;;;;5054118;28;20036;-47
2021/01/18 12:56:31;;;;;;;20.25;14.25;;;5.10;58.30;;;;;;5028112;28;20049;-45
2021/01/18 12:58:57;;;;;;;16.05;12.23;;;4.80;57.80;;;;;;5077815;28;20041;-50